This is the latest recevied weather packets stored in our database for station/object WMKC. If no packets are shown the sender has not sent any weather packets the latest 10 day(s).
| Time | Temp. | Humidity | Pressure | Rain* | Wind** | Luminosity | Snow |
|---|---|---|---|---|---|---|---|
| 1777615828 | 33.89° C | 49% | 1009 hPa | - | - | - | - |
| 1777612234 | 35° C | 46% | 1010 hPa | - | - | - | - |
| 1777608621 | 33.89° C | 52% | 1011 hPa | - | - | - | - |
| 1777605021 | 31.67° C | 59% | 1011 hPa | - | - | - | - |
| 1777587021 | 25.56° C | 83% | 1008 hPa | - | - | - | - |
| 1777583433 | 26.67° C | 78% | 1008 hPa | - | - | - | - |
| 1777579822 | 26.67° C | 83% | 1008 hPa | - | - | - | - |
| 1777576221 | 27.78° C | 78% | 1009 hPa | - | - | - | - |
| 1777569031 | 28.89° C | 74% | 1010 hPa | - | - | - | - |
| 1777565420 | 28.89° C | 74% | 1011 hPa | - | - | - | - |
| 1777554631 | 28.89° C | 70% | 1009 hPa | - | - | - | - |
| 1777547420 | 30.56° C | 62% | 1007 hPa | - | - | - | - |
| 1777543820 | 31.67° C | 59% | 1007 hPa | - | - | - | - |
| 1777540231 | 31.67° C | 59% | 1007 hPa | - | - | - | - |
| 1777536619 | 32.78° C | 55% | 1008 hPa | - | - | - | - |
| 1777533017 | 33.89° C | 52% | 1008 hPa | - | - | - | - |
| 1777529419 | 33.89° C | 52% | 1009 hPa | - | - | - | - |
| 1777525830 | 33.89° C | 43% | 1010 hPa | - | - | - | - |
| 1777522215 | 33.89° C | 46% | 1010 hPa | - | - | - | - |
| 1777518619 | 33.89° C | 49% | 1010 hPa | - | - | - | - |
| 1777515019 | 30.56° C | 62% | 1011 hPa | - | - | - | - |
| 1777511419 | 30° C | 66% | 1010 hPa | - | - | - | - |
| 1777507838 | 27.78° C | 78% | 1009 hPa | - | - | - | - |
| 1777500619 | 26.67° C | 83% | 1008 hPa | - | - | - | - |
| 1777468218 | 28.89° C | 74% | 1009 hPa | - | - | - | - |
* Rain since midnight (hover to see other rain measurements)
** Current wind speed in m/s (hover to see current wind gust speed)